createdAt,value
2022-11-02T00:01:57.937Z,6.77
2022-11-02T00:04:28.512Z,6.74
2022-11-02T00:06:59.366Z,6.74
2022-11-02T00:09:29.790Z,6.73
2022-11-02T00:12:00.216Z,6.72
2022-11-02T00:14:30.577Z,6.70
2022-11-02T00:17:01.118Z,6.68
2022-11-02T00:19:32.015Z,6.67
2022-11-02T00:22:02.972Z,6.64
2022-11-02T00:24:34.941Z,6.64
2022-11-02T00:27:05.453Z,6.65
2022-11-02T00:29:36.699Z,6.66
2022-11-02T00:32:07.705Z,6.65
2022-11-02T00:34:38.175Z,6.63
2022-11-02T00:37:08.994Z,6.63
2022-11-02T00:39:39.771Z,6.62
2022-11-02T00:42:10.296Z,6.62
2022-11-02T00:44:41.116Z,6.64
2022-11-02T00:53:37.442Z,6.72
2022-11-02T00:56:09.493Z,6.70
2022-11-02T00:58:39.994Z,6.75
2022-11-02T01:01:11.651Z,6.80
2022-11-02T01:03:42.153Z,6.85
2022-11-02T01:06:15.096Z,6.90
2022-11-02T01:08:44.027Z,6.92
2022-11-02T01:11:16.680Z,6.92
2022-11-02T01:13:48.428Z,6.91
2022-11-02T01:16:21.534Z,6.91
2022-11-02T01:18:55.421Z,6.97
2022-11-02T01:21:26.310Z,7.03
2022-11-02T01:23:57.691Z,7.09
2022-11-02T01:26:28.188Z,7.14
2022-11-02T01:28:58.673Z,7.18
2022-11-02T01:31:29.160Z,7.20
2022-11-02T01:33:59.681Z,7.22
2022-11-02T01:36:30.231Z,7.26
2022-11-02T01:39:00.698Z,7.32
2022-11-02T01:41:31.455Z,7.38
2022-11-02T01:44:05.398Z,7.40
2022-11-02T01:46:40.906Z,7.43
2022-11-02T01:49:14.416Z,7.44
2022-11-02T01:51:47.889Z,7.46
2022-11-02T01:54:20.037Z,7.49
2022-11-02T01:56:53.711Z,7.52
2022-11-02T01:59:35.704Z,7.54
2022-11-02T02:02:10.349Z,7.54
2022-11-02T02:04:41.028Z,7.54
2022-11-02T02:07:11.933Z,7.54
2022-11-02T02:09:47.163Z,7.57
2022-11-02T02:12:21.225Z,7.60
2022-11-02T02:14:52.990Z,7.64
2022-11-02T02:17:32.991Z,7.68
2022-11-02T02:20:07.258Z,7.68
2022-11-02T02:23:19.872Z,7.66
2022-11-02T02:26:18.819Z,7.59
2022-11-02T02:28:52.300Z,7.57
2022-11-02T02:31:27.169Z,7.52
2022-11-02T02:34:02.154Z,7.45
2022-11-02T02:36:35.585Z,7.36
2022-11-02T02:39:10.479Z,7.29
2022-11-02T02:41:42.140Z,7.22
2022-11-02T02:44:14.478Z,7.20
2022-11-02T02:46:49.061Z,7.20
2022-11-02T02:49:23.505Z,7.21
2022-11-02T02:51:54.201Z,7.21
2022-11-02T02:54:27.077Z,7.22
2022-11-02T02:57:01.308Z,7.23
2022-11-02T02:59:35.164Z,7.27
2022-11-02T03:02:09.826Z,7.31
2022-11-02T03:04:40.504Z,7.36
2022-11-02T03:07:15.952Z,7.39
2022-11-02T03:09:49.187Z,7.42
2022-11-02T03:12:29.131Z,7.45
2022-11-02T03:15:10.375Z,7.50
2022-11-02T03:17:50.839Z,7.56
2022-11-02T03:20:26.662Z,7.62
2022-11-02T03:23:06.574Z,7.67
2022-11-02T03:25:41.925Z,7.70
2022-11-02T03:28:17.591Z,7.72
2022-11-02T03:30:50.947Z,7.73
2022-11-02T03:33:25.238Z,7.77
2022-11-02T03:35:59.751Z,7.79
2022-11-02T03:38:35.966Z,7.81
2022-11-02T03:41:07.368Z,7.79
2022-11-02T03:43:39.387Z,7.78
2022-11-02T03:46:11.067Z,7.80
2022-11-02T03:48:44.009Z,7.83
2022-11-02T03:51:17.019Z,7.88
2022-11-02T03:53:50.848Z,7.94
2022-11-02T03:56:26.263Z,8.02
2022-11-02T03:58:57.163Z,8.08
2022-11-02T04:01:29.740Z,8.13
2022-11-02T04:04:00.812Z,8.17
2022-11-02T04:06:31.297Z,8.21
2022-11-02T04:09:03.867Z,8.25
2022-11-02T04:11:52.320Z,8.30
2022-11-02T04:14:41.420Z,8.33
2022-11-02T04:17:35.515Z,8.37
2022-11-02T04:20:10.584Z,8.38
2022-11-02T04:22:58.542Z,8.38
2022-11-02T04:25:29.275Z,8.37
2022-11-02T04:28:18.161Z,8.34
2022-11-02T04:30:58.664Z,8.33
2022-11-02T04:33:36.507Z,8.30
2022-11-02T04:36:14.945Z,8.24
2022-11-02T04:38:45.893Z,8.18
2022-11-02T04:41:45.847Z,8.10
2022-11-02T04:44:35.078Z,8.03
2022-11-02T04:47:12.041Z,7.95
2022-11-02T04:49:42.547Z,7.85
2022-11-02T04:52:15.535Z,7.75
2022-11-02T04:54:51.024Z,7.62
2022-11-02T04:57:21.856Z,7.50
2022-11-02T04:59:56.171Z,7.39
2022-11-02T05:02:26.824Z,7.26
2022-11-02T05:04:58.290Z,7.15
2022-11-02T05:07:29.633Z,7.05
2022-11-02T05:10:00.164Z,6.98
2022-11-02T05:12:31.337Z,6.91
2022-11-02T05:15:03.325Z,6.83
2022-11-02T05:17:33.897Z,6.74
2022-11-02T05:20:05.913Z,6.63
2022-11-02T05:22:36.469Z,6.53
2022-11-02T05:25:07.882Z,6.43
2022-11-02T05:27:40.086Z,6.37
2022-11-02T05:30:13.633Z,6.32
2022-11-02T05:32:44.389Z,6.25
2022-11-02T05:35:15.000Z,6.18
2022-11-02T05:37:46.704Z,6.10
2022-11-02T05:40:17.213Z,6.03
2022-11-02T05:42:47.823Z,5.99
2022-11-02T05:45:22.087Z,5.96
2022-11-02T05:47:54.175Z,5.92
2022-11-02T05:50:24.635Z,5.86
2022-11-02T05:52:56.728Z,5.83
2022-11-02T05:55:27.305Z,5.82
2022-11-02T05:57:58.326Z,5.79
2022-11-02T06:00:29.219Z,5.79
2022-11-02T06:02:59.988Z,5.83
2022-11-02T06:05:30.835Z,5.87
2022-11-02T06:08:02.621Z,5.91
2022-11-02T06:10:33.226Z,5.97
2022-11-02T06:13:05.171Z,6.02
2022-11-02T06:15:36.015Z,6.09
2022-11-02T06:18:07.840Z,6.15
2022-11-02T06:20:38.372Z,6.20
2022-11-02T06:23:09.178Z,6.21
2022-11-02T06:25:40.040Z,6.24
2022-11-02T06:28:10.445Z,6.29
2022-11-02T06:30:41.650Z,6.36
2022-11-02T06:33:12.405Z,6.44
2022-11-02T06:35:44.074Z,6.50
2022-11-02T06:38:14.861Z,6.58
2022-11-02T06:40:45.692Z,6.65
2022-11-02T06:43:17.424Z,6.70
2022-11-02T06:45:48.385Z,6.77
2022-11-02T06:48:18.783Z,6.85
2022-11-02T06:50:49.172Z,6.94
2022-11-02T06:53:19.710Z,7.03
2022-11-02T06:55:55.120Z,7.10
2022-11-02T06:58:26.064Z,7.16
2022-11-02T07:01:01.780Z,7.24
2022-11-02T07:03:33.127Z,7.57
2022-11-02T07:06:03.758Z,8.02
2022-11-02T07:08:34.146Z,8.47
2022-11-02T07:11:04.984Z,8.92
2022-11-02T07:13:35.421Z,9.29
2022-11-02T07:16:06.140Z,9.64
2022-11-02T07:18:36.675Z,9.99
2022-11-02T07:21:10.496Z,10.36
2022-11-02T07:23:41.163Z,10.67
2022-11-02T07:26:11.774Z,10.96
2022-11-02T07:28:42.275Z,11.24
2022-11-02T07:31:12.626Z,11.56
2022-11-02T07:33:43.271Z,11.86
2022-11-02T07:36:13.956Z,12.18
2022-11-02T07:38:44.788Z,12.38
2022-11-02T07:41:15.256Z,12.57
2022-11-02T07:43:45.918Z,12.71
2022-11-02T07:46:28.585Z,12.90
2022-11-02T07:48:59.141Z,13.10
2022-11-02T07:51:30.868Z,13.25
2022-11-02T07:54:02.649Z,13.39
2022-11-02T07:56:33.193Z,13.56
2022-11-02T07:59:03.766Z,13.74
2022-11-02T08:01:34.257Z,13.88
2022-11-02T08:04:04.925Z,14.01
2022-11-02T08:06:37.000Z,14.21
2022-11-02T08:09:10.512Z,14.44
2022-11-02T08:11:41.167Z,14.63
2022-11-02T08:14:16.061Z,14.62
2022-11-02T08:16:48.144Z,14.70
2022-11-02T08:19:18.935Z,14.63
2022-11-02T08:21:50.131Z,14.67
2022-11-02T08:24:20.811Z,14.93
2022-11-02T08:26:53.953Z,14.92
2022-11-02T08:29:25.574Z,14.76
2022-11-02T08:31:56.381Z,14.52
2022-11-02T08:34:26.939Z,14.24
2022-11-02T08:36:58.231Z,14.13
2022-11-02T08:39:28.802Z,14.41
2022-11-02T08:41:59.285Z,14.50
2022-11-02T08:44:29.899Z,14.55
2022-11-02T08:47:02.150Z,14.57
2022-11-02T08:49:34.687Z,14.56
2022-11-02T08:52:05.429Z,15.01
2022-11-02T08:54:36.020Z,15.18
2022-11-02T08:57:06.621Z,15.32
2022-11-02T08:59:42.176Z,15.48
2022-11-02T09:02:12.989Z,16.07
2022-11-02T09:04:43.992Z,16.70
2022-11-02T09:07:14.589Z,17.19
2022-11-02T09:09:45.462Z,17.49
2022-11-02T09:12:17.661Z,17.65
2022-11-02T09:14:50.820Z,18.04
2022-11-02T09:17:21.431Z,18.08
2022-11-02T09:19:52.135Z,18.21
2022-11-02T09:22:22.715Z,18.04
2022-11-02T09:24:53.967Z,18.22
2022-11-02T09:27:25.352Z,17.97
2022-11-02T09:29:55.939Z,17.94
2022-11-02T09:32:26.539Z,17.97
2022-11-02T09:34:56.927Z,18.23
2022-11-02T09:37:32.096Z,18.56
2022-11-02T09:40:05.559Z,18.96
2022-11-02T09:42:51.849Z,19.10
2022-11-02T09:45:23.320Z,19.37
2022-11-02T09:50:51.565Z,19.74
2022-11-02T09:53:28.749Z,19.99
2022-11-02T09:56:03.839Z,20.36
2022-11-02T09:58:40.508Z,20.64
2022-11-02T10:01:24.822Z,20.88
2022-11-02T10:04:08.763Z,21.03
2022-11-02T10:06:43.658Z,21.13
2022-11-02T10:09:19.867Z,21.02
2022-11-02T10:11:59.611Z,21.02
2022-11-02T10:14:34.804Z,20.78
2022-11-02T10:17:12.867Z,20.86
2022-11-02T10:19:48.421Z,20.88
2022-11-02T10:22:21.037Z,20.97
2022-11-02T10:24:54.640Z,20.52
2022-11-02T10:27:30.945Z,19.81
2022-11-02T10:30:05.865Z,19.20
2022-11-02T10:32:40.946Z,18.53
2022-11-02T10:35:37.016Z,17.98
2022-11-02T10:38:22.805Z,17.54
2022-11-02T10:40:58.540Z,18.06
2022-11-02T10:43:52.366Z,18.45
2022-11-02T10:46:39.810Z,19.53
2022-11-02T10:49:20.444Z,20.13
2022-11-02T10:51:53.156Z,20.06
2022-11-02T11:01:07.445Z,20.58
2022-11-02T11:03:56.743Z,20.54
2022-11-02T11:06:32.354Z,20.76
2022-11-02T11:09:16.112Z,21.27
2022-11-02T11:11:55.539Z,22.18
2022-11-02T11:20:30.813Z,19.22
2022-11-02T11:23:19.927Z,18.17
2022-11-02T11:26:02.223Z,17.20
2022-11-02T11:28:35.731Z,16.44
2022-11-02T11:31:14.369Z,15.78
2022-11-02T11:33:48.239Z,15.24
2022-11-02T11:36:26.978Z,14.97
2022-11-02T11:39:00.353Z,16.01
2022-11-02T11:41:31.549Z,15.80
2022-11-02T11:44:02.991Z,15.58
2022-11-02T11:46:43.932Z,15.31
2022-11-02T11:49:36.042Z,15.16
2022-11-02T11:52:20.170Z,14.89
2022-11-02T11:54:59.548Z,14.53
2022-11-02T11:57:32.448Z,14.22
2022-11-02T12:00:06.740Z,13.98
2022-11-02T12:02:44.271Z,13.82
2022-11-02T12:05:17.626Z,13.70
2022-11-02T12:08:02.403Z,13.58
2022-11-02T12:10:44.151Z,13.49
2022-11-02T12:13:27.335Z,13.45
2022-11-02T12:16:08.596Z,13.45
2022-11-02T12:18:51.316Z,13.42
2022-11-02T12:21:35.234Z,13.35
2022-11-02T12:24:23.415Z,13.28
2022-11-02T12:27:03.183Z,13.22
2022-11-02T12:29:57.481Z,13.18
2022-11-02T12:32:42.106Z,13.12
2022-11-02T12:35:38.130Z,13.12
2022-11-02T12:38:29.651Z,13.10
2022-11-02T12:41:05.174Z,13.06
2022-11-02T12:43:43.250Z,13.04
2022-11-02T12:46:34.036Z,13.06
2022-11-02T12:49:25.978Z,13.08
2022-11-02T12:52:01.686Z,13.10
2022-11-02T12:54:41.733Z,13.11
2022-11-02T12:57:17.001Z,13.09
2022-11-02T12:59:49.498Z,13.05
2022-11-02T13:02:22.527Z,13.01
2022-11-02T13:04:55.828Z,12.95
2022-11-02T13:07:30.683Z,12.88
2022-11-02T13:10:06.549Z,12.81
2022-11-02T13:12:39.644Z,12.72
2022-11-02T13:15:16.773Z,12.67
2022-11-02T13:17:50.291Z,12.63
2022-11-02T13:20:23.298Z,12.59
2022-11-02T13:22:57.083Z,12.56
2022-11-02T13:25:31.418Z,12.61
2022-11-02T13:28:06.116Z,12.72
2022-11-02T13:30:37.288Z,12.85
2022-11-02T13:33:15.415Z,12.99
2022-11-02T13:35:46.280Z,13.17
2022-11-02T13:38:28.561Z,13.33
2022-11-02T13:41:09.172Z,13.47
2022-11-02T13:44:12.436Z,13.61
2022-11-02T13:46:59.080Z,13.73
2022-11-02T13:49:32.701Z,13.73
2022-11-02T13:52:07.447Z,13.68
2022-11-02T13:54:43.408Z,13.60
2022-11-02T13:57:30.021Z,13.53
2022-11-02T14:00:00.908Z,13.43
2022-11-02T14:02:35.005Z,13.33
2022-11-02T14:05:05.828Z,13.24
2022-11-02T14:07:40.226Z,13.17
2022-11-02T14:10:17.324Z,13.08
2022-11-02T14:12:48.682Z,12.97
2022-11-02T14:15:54.533Z,12.87
2022-11-02T14:18:34.659Z,12.76
2022-11-02T14:21:35.699Z,12.66
2022-11-02T14:24:46.219Z,12.53
2022-11-02T14:27:31.190Z,12.39
2022-11-02T14:30:01.938Z,12.30
2022-11-02T14:32:57.424Z,12.27
2022-11-02T14:35:38.885Z,12.25
2022-11-02T14:38:29.384Z,12.22
2022-11-02T14:41:05.417Z,12.19
2022-11-02T14:44:15.946Z,12.15
2022-11-02T14:46:57.824Z,12.09
2022-11-02T14:49:32.373Z,12.03
2022-11-02T14:52:05.803Z,11.98
2022-11-02T14:54:40.571Z,11.94
2022-11-02T14:57:21.650Z,11.89
2022-11-02T14:59:53.586Z,11.85
2022-11-02T15:02:28.402Z,11.82
2022-11-02T15:05:02.894Z,11.77
2022-11-02T15:07:36.982Z,11.71
2022-11-02T15:10:30.530Z,11.63
2022-11-02T15:13:31.747Z,11.53
2022-11-02T15:16:41.555Z,11.45
2022-11-02T15:19:40.118Z,11.37
2022-11-02T15:22:35.863Z,11.29
2022-11-02T15:25:10.923Z,11.21
2022-11-02T15:27:43.469Z,11.13
2022-11-02T15:30:17.981Z,11.04
2022-11-02T15:32:51.125Z,10.95
2022-11-02T15:35:23.978Z,10.85
2022-11-02T15:38:15.963Z,10.74
2022-11-02T15:40:50.168Z,10.61
2022-11-02T15:43:35.298Z,10.48
2022-11-02T15:46:10.685Z,10.39
2022-11-02T15:48:47.476Z,10.30
2022-11-02T15:51:22.625Z,10.21
2022-11-02T15:54:07.274Z,10.10
2022-11-02T15:56:53.053Z,9.98
2022-11-02T15:59:37.732Z,9.85
2022-11-02T16:02:22.296Z,9.72
2022-11-02T16:04:54.688Z,9.60
2022-11-02T16:07:33.524Z,9.50
2022-11-02T16:10:22.791Z,9.39
2022-11-02T16:13:00.278Z,9.29
2022-11-02T16:15:31.523Z,9.22
2022-11-02T16:18:02.141Z,9.13
2022-11-02T16:20:35.899Z,9.05
2022-11-02T16:29:10.570Z,8.81
2022-11-02T16:31:41.527Z,8.69
2022-11-02T16:34:19.868Z,8.61
2022-11-02T16:36:50.814Z,8.54
2022-11-02T16:39:23.875Z,8.50
2022-11-02T16:41:57.332Z,8.46
2022-11-02T16:44:30.430Z,8.43
2022-11-02T16:47:15.139Z,8.40
2022-11-02T16:52:47.706Z,8.34
2022-11-02T16:58:35.560Z,8.25
2022-11-02T17:01:07.587Z,8.17
2022-11-02T17:03:38.286Z,8.12
2022-11-02T17:06:09.392Z,8.10
2022-11-02T17:08:41.183Z,8.09
2022-11-02T17:11:16.160Z,8.08
2022-11-02T17:13:50.117Z,8.04
2022-11-02T17:16:20.827Z,8.01
2022-11-02T17:18:51.355Z,7.95
2022-11-02T17:21:32.062Z,7.88
2022-11-02T17:24:03.103Z,7.81
2022-11-02T17:26:40.317Z,7.79
2022-11-02T17:29:33.399Z,7.76
2022-11-02T17:32:05.346Z,7.73
2022-11-02T17:34:36.146Z,7.71
2022-11-02T17:37:08.781Z,7.68
2022-11-02T17:39:39.283Z,7.65
2022-11-02T17:42:31.840Z,7.61
2022-11-02T17:45:24.300Z,7.57
2022-11-02T17:47:55.294Z,7.52
2022-11-02T17:50:27.024Z,7.48
2022-11-02T17:52:58.086Z,7.46
2022-11-02T17:55:29.671Z,7.44
2022-11-02T17:58:00.886Z,7.43
2022-11-02T18:00:31.583Z,7.42
2022-11-02T18:03:02.629Z,7.39
2022-11-02T18:05:36.837Z,7.37
2022-11-02T18:08:10.245Z,7.34
2022-11-02T18:10:42.483Z,7.30
2022-11-02T18:13:14.350Z,7.29
2022-11-02T18:15:45.058Z,7.29
2022-11-02T18:18:15.603Z,7.28
2022-11-02T18:20:46.192Z,7.25
2022-11-02T18:23:19.806Z,7.24
2022-11-02T18:25:52.813Z,7.23
2022-11-02T18:28:25.945Z,7.21
2022-11-02T18:30:56.433Z,7.18
2022-11-02T18:33:26.849Z,7.14
2022-11-02T18:36:04.493Z,7.11
2022-11-02T18:38:35.037Z,7.09
2022-11-02T18:41:22.716Z,7.07
2022-11-02T18:43:53.224Z,7.05
2022-11-02T18:46:26.617Z,7.02
2022-11-02T18:49:00.445Z,6.99
2022-11-02T18:51:31.250Z,6.95
2022-11-02T18:54:02.974Z,6.90
2022-11-02T18:56:33.492Z,6.86
2022-11-02T18:59:04.229Z,6.83
2022-11-02T19:01:34.846Z,6.80
2022-11-02T19:04:05.579Z,6.78
2022-11-02T19:06:53.871Z,6.75
2022-11-02T19:09:26.972Z,6.70
2022-11-02T19:12:02.250Z,6.67
2022-11-02T19:14:34.527Z,6.63
2022-11-02T19:17:05.745Z,6.59
2022-11-02T19:19:36.390Z,6.58
2022-11-02T19:22:06.782Z,6.58
2022-11-02T19:24:37.262Z,6.58
2022-11-02T19:27:44.500Z,6.57
2022-11-02T19:30:11.297Z,6.56
2022-11-02T19:32:41.766Z,6.54
2022-11-02T19:35:12.413Z,6.53
2022-11-02T19:37:42.869Z,6.52
2022-11-02T19:40:14.622Z,6.52
2022-11-02T19:42:47.314Z,6.54
2022-11-02T19:45:17.917Z,6.53
2022-11-02T19:47:51.081Z,6.51
2022-11-02T19:50:21.545Z,6.48
2022-11-02T19:52:52.213Z,6.47
2022-11-02T19:55:28.536Z,6.45
2022-11-02T19:58:01.991Z,6.42
2022-11-02T20:00:32.772Z,6.40
2022-11-02T20:03:05.120Z,6.40
2022-11-02T20:05:35.656Z,6.41
2022-11-02T20:08:06.450Z,6.40
2022-11-02T20:10:37.328Z,6.39
2022-11-02T20:13:07.932Z,6.37
2022-11-02T20:15:40.559Z,6.35
2022-11-02T20:18:19.573Z,6.31
2022-11-02T20:20:52.398Z,6.30
2022-11-02T20:23:23.043Z,6.30
2022-11-02T20:25:53.434Z,6.30
2022-11-02T20:28:23.860Z,6.31
2022-11-02T20:30:54.359Z,6.31
2022-11-02T20:33:25.122Z,6.31
2022-11-02T20:35:55.746Z,6.29
2022-11-02T20:38:26.552Z,6.27
2022-11-02T20:40:57.792Z,6.27
2022-11-02T20:43:28.163Z,6.26
2022-11-02T20:46:35.834Z,6.27
2022-11-02T20:48:55.442Z,6.26
2022-11-02T20:51:26.306Z,6.25
2022-11-02T20:53:56.762Z,6.23
2022-11-02T20:56:27.250Z,6.21
2022-11-02T20:58:57.983Z,6.19
2022-11-02T21:01:28.422Z,6.20
2022-11-02T21:03:59.046Z,6.22
2022-11-02T21:06:29.570Z,6.25
2022-11-02T21:09:00.523Z,6.26
2022-11-02T21:11:48.715Z,6.27
2022-11-02T21:14:19.270Z,6.28
2022-11-02T21:16:50.070Z,6.28
2022-11-02T21:19:20.537Z,6.27
2022-11-02T21:21:55.030Z,6.26
2022-11-02T21:24:28.798Z,6.27
2022-11-02T21:26:59.288Z,6.30
2022-11-02T21:29:29.730Z,6.31
2022-11-02T21:32:00.621Z,6.30
2022-11-02T21:34:31.052Z,6.30
2022-11-02T21:37:03.059Z,6.29
2022-11-02T21:39:33.572Z,6.32
2022-11-02T21:42:04.567Z,6.35
2022-11-02T21:44:35.109Z,6.41
2022-11-02T21:47:05.542Z,6.49
2022-11-02T21:49:36.035Z,6.56
2022-11-02T21:52:06.879Z,6.61
2022-11-02T21:54:37.514Z,6.64
2022-11-02T21:57:08.044Z,6.64
2022-11-02T21:59:38.567Z,6.63
2022-11-02T22:02:09.405Z,6.62
2022-11-02T22:04:40.057Z,6.62
2022-11-02T22:07:10.446Z,6.63
2022-11-02T22:09:41.127Z,6.67
2022-11-02T22:12:28.946Z,6.71
2022-11-02T22:14:59.573Z,6.75
2022-11-02T22:17:49.236Z,6.80
2022-11-02T22:20:20.414Z,6.88
2022-11-02T22:22:50.778Z,6.95
2022-11-02T22:25:21.290Z,7.00
2022-11-02T22:27:52.421Z,7.02
2022-11-02T22:30:24.453Z,7.02
2022-11-02T22:32:54.855Z,7.02
2022-11-02T22:35:25.387Z,7.04
2022-11-02T22:38:13.138Z,7.08
2022-11-02T22:40:43.914Z,7.14
2022-11-02T22:43:14.434Z,7.19
2022-11-02T22:45:44.984Z,7.25
2022-11-02T22:48:15.559Z,7.29
2022-11-02T22:50:47.642Z,7.31
2022-11-02T22:53:18.104Z,7.33
2022-11-02T22:55:53.528Z,7.33
2022-11-02T22:58:25.166Z,7.32
2022-11-02T23:00:56.812Z,7.28
2022-11-02T23:03:27.634Z,7.25
2022-11-02T23:05:58.219Z,7.18
2022-11-02T23:08:29.508Z,7.10
2022-11-02T23:11:18.308Z,7.03
2022-11-02T23:13:50.044Z,6.94
2022-11-02T23:16:22.443Z,6.87
2022-11-02T23:19:12.543Z,6.84
2022-11-02T23:21:45.124Z,6.85
2022-11-02T23:24:33.411Z,6.87
2022-11-02T23:27:04.935Z,6.89
2022-11-02T23:29:52.742Z,6.89
2022-11-02T23:32:28.852Z,6.87
2022-11-02T23:35:17.761Z,6.83
2022-11-02T23:37:48.763Z,6.81
2022-11-02T23:40:19.975Z,6.81
2022-11-02T23:42:50.418Z,6.80
2022-11-02T23:45:20.802Z,6.79
2022-11-02T23:48:01.344Z,6.79
2022-11-02T23:50:50.961Z,6.80
2022-11-02T23:53:41.120Z,6.82
2022-11-02T23:56:34.154Z,6.86
2022-11-02T23:59:07.506Z,6.91
